createdAt,value
2022-12-12T00:00:23.579Z,62.20
2022-12-12T00:00:58.606Z,60.00
2022-12-12T00:01:27.971Z,59.90
2022-12-12T00:02:00.127Z,59.70
2022-12-12T00:02:32.423Z,56.60
2022-12-12T00:03:05.529Z,67.60
2022-12-12T00:03:37.712Z,67.70
2022-12-12T00:04:09.810Z,64.80
2022-12-12T00:04:42.029Z,64.60
2022-12-12T00:05:14.557Z,63.80
2022-12-12T00:05:46.405Z,62.40
2022-12-12T00:06:18.608Z,63.00
2022-12-12T00:06:50.757Z,73.40
2022-12-12T00:07:22.995Z,71.50
2022-12-12T00:07:55.200Z,58.70
2022-12-12T00:08:27.353Z,57.70
2022-12-12T00:08:59.569Z,55.90
2022-12-12T00:09:31.798Z,57.80
2022-12-12T00:10:04.058Z,65.20
2022-12-12T00:10:36.282Z,70.20
2022-12-12T00:11:08.444Z,67.10
2022-12-12T00:11:40.807Z,59.10
2022-12-12T00:12:12.985Z,54.10
2022-12-12T00:12:45.156Z,56.80
2022-12-12T00:13:17.301Z,64.60
2022-12-12T00:13:49.644Z,63.90
2022-12-12T00:14:21.813Z,70.20
2022-12-12T00:14:53.974Z,64.20
2022-12-12T00:15:26.154Z,67.80
2022-12-12T00:15:58.360Z,62.30
2022-12-12T00:16:30.534Z,55.00
2022-12-12T00:17:02.813Z,59.90
2022-12-12T00:17:35.054Z,68.50
2022-12-12T00:18:07.269Z,60.30
2022-12-12T00:18:39.436Z,60.70
2022-12-12T00:19:11.614Z,59.80
2022-12-12T00:19:43.772Z,62.90
2022-12-12T00:20:16.079Z,61.30
2022-12-12T00:20:48.340Z,57.50
2022-12-12T00:21:20.508Z,61.70
2022-12-12T00:21:52.766Z,65.30
2022-12-12T00:22:24.978Z,67.00
2022-12-12T00:22:57.178Z,65.00
2022-12-12T00:23:29.354Z,64.70
2022-12-12T00:24:01.521Z,63.00
2022-12-12T00:24:33.767Z,64.60
2022-12-12T00:25:05.929Z,57.90
2022-12-12T00:25:38.166Z,58.00
2022-12-12T00:26:10.451Z,61.70
2022-12-12T00:26:42.648Z,62.30
2022-12-12T00:27:14.918Z,64.50
2022-12-12T00:27:47.038Z,57.10
2022-12-12T00:28:19.185Z,64.40
2022-12-12T00:28:51.358Z,66.70
2022-12-12T00:29:23.686Z,66.70
2022-12-12T00:29:55.839Z,68.80
2022-12-12T00:30:28.042Z,61.30
2022-12-12T00:31:00.280Z,63.20
2022-12-12T00:31:32.447Z,60.50
2022-12-12T00:32:04.567Z,60.90
2022-12-12T00:32:36.783Z,58.50
2022-12-12T00:33:08.969Z,61.30
2022-12-12T00:33:41.154Z,70.20
2022-12-12T00:34:13.302Z,70.30
2022-12-12T00:34:45.492Z,67.30
2022-12-12T00:35:17.635Z,73.00
2022-12-12T00:35:49.889Z,71.90
2022-12-12T00:36:22.047Z,67.50
2022-12-12T00:36:54.228Z,66.20
2022-12-12T00:37:26.415Z,64.40
2022-12-12T00:37:58.590Z,69.50
2022-12-12T00:38:30.889Z,71.70
2022-12-12T00:39:03.078Z,61.60
2022-12-12T00:39:35.303Z,63.70
2022-12-12T00:40:07.469Z,64.50
2022-12-12T00:40:39.674Z,65.00
2022-12-12T00:41:11.850Z,64.60
2022-12-12T00:41:44.043Z,60.60
2022-12-12T00:42:16.203Z,59.40
2022-12-12T00:42:48.372Z,59.60
2022-12-12T00:43:20.524Z,56.60
2022-12-12T00:43:52.672Z,66.00
2022-12-12T00:44:24.817Z,66.60
2022-12-12T00:44:56.999Z,59.40
2022-12-12T00:45:29.150Z,59.40
2022-12-12T00:46:01.370Z,55.70
2022-12-12T00:46:33.545Z,62.20
2022-12-12T00:47:05.726Z,72.30
2022-12-12T00:47:37.911Z,69.30
2022-12-12T00:48:10.067Z,59.20
2022-12-12T00:48:42.252Z,60.90
2022-12-12T00:49:14.407Z,60.80
2022-12-12T00:49:46.605Z,67.70
2022-12-12T00:50:18.789Z,77.40
2022-12-12T00:50:51.035Z,72.70
2022-12-12T00:51:23.230Z,67.40
2022-12-12T00:51:55.405Z,66.40
2022-12-12T00:52:27.589Z,69.80
2022-12-12T00:52:59.793Z,63.50
2022-12-12T00:53:31.966Z,57.20
2022-12-12T00:54:04.132Z,60.20
2022-12-12T00:54:36.303Z,65.90
2022-12-12T00:55:08.464Z,59.00
2022-12-12T00:55:40.635Z,62.20
2022-12-12T00:56:12.825Z,62.20
2022-12-12T00:56:45.075Z,62.40
2022-12-12T00:57:17.321Z,62.60
2022-12-12T00:57:49.487Z,68.30
2022-12-12T00:58:21.676Z,71.70
2022-12-12T00:58:53.880Z,63.30
2022-12-12T00:59:26.033Z,60.10
2022-12-12T00:59:58.239Z,62.10
2022-12-12T01:00:30.432Z,63.40
2022-12-12T01:01:02.628Z,60.80
2022-12-12T01:01:34.921Z,57.80
2022-12-12T01:02:07.129Z,65.70
2022-12-12T01:02:39.356Z,69.50
2022-12-12T01:03:11.600Z,66.60
2022-12-12T01:03:43.691Z,64.50
2022-12-12T01:04:15.868Z,66.60
2022-12-12T01:04:48.021Z,68.70
2022-12-12T01:05:20.261Z,67.70
2022-12-12T01:05:52.473Z,66.00
2022-12-12T01:06:24.671Z,70.90
2022-12-12T01:06:56.897Z,71.00
2022-12-12T01:07:29.054Z,72.00
2022-12-12T01:08:01.269Z,70.90
2022-12-12T01:08:33.567Z,75.70
2022-12-12T01:09:05.834Z,81.10
2022-12-12T01:09:38.019Z,75.50
2022-12-12T01:10:10.218Z,72.00
2022-12-12T01:10:42.409Z,70.20
2022-12-12T01:11:14.544Z,70.20
2022-12-12T01:11:47.068Z,71.90
2022-12-12T01:12:19.249Z,70.50
2022-12-12T01:12:51.424Z,67.20
2022-12-12T01:13:23.765Z,66.30
2022-12-12T01:13:55.925Z,64.40
2022-12-12T01:14:28.099Z,66.90
2022-12-12T01:15:00.277Z,64.30
2022-12-12T01:15:32.486Z,60.70
2022-12-12T01:16:04.709Z,60.20
2022-12-12T01:16:36.849Z,64.30
2022-12-12T01:17:09.070Z,65.50
2022-12-12T01:17:41.267Z,62.80
2022-12-12T01:18:13.467Z,59.30
2022-12-12T01:18:45.705Z,60.20
2022-12-12T01:19:17.878Z,56.80
2022-12-12T01:19:50.080Z,56.30
2022-12-12T01:20:22.234Z,62.50
2022-12-12T01:20:54.501Z,66.80
2022-12-12T01:21:26.692Z,69.50
2022-12-12T01:21:58.950Z,67.60
2022-12-12T01:22:31.174Z,68.00
2022-12-12T01:23:03.404Z,67.00
2022-12-12T01:23:35.586Z,55.30
2022-12-12T01:24:07.766Z,55.00
2022-12-12T01:24:39.941Z,61.50
2022-12-12T01:25:12.418Z,73.50
2022-12-12T01:25:44.436Z,71.70
2022-12-12T01:26:16.599Z,66.20
2022-12-12T01:26:48.771Z,67.10
2022-12-12T01:27:20.954Z,66.10
2022-12-12T01:27:53.157Z,64.90
2022-12-12T01:28:25.441Z,62.30
2022-12-12T01:28:57.590Z,68.50
2022-12-12T01:29:29.789Z,68.60
2022-12-12T01:30:02.015Z,60.10
2022-12-12T01:30:34.247Z,64.40
2022-12-12T01:31:06.474Z,68.10
2022-12-12T01:31:38.680Z,59.70
2022-12-12T01:32:10.812Z,60.00
2022-12-12T01:32:43.206Z,63.40
2022-12-12T01:33:15.365Z,67.40
2022-12-12T01:33:47.547Z,64.20
2022-12-12T01:34:19.736Z,61.70
2022-12-12T01:34:51.948Z,62.00
2022-12-12T01:35:24.179Z,53.30
2022-12-12T01:35:56.442Z,60.20
2022-12-12T01:36:28.611Z,61.90
2022-12-12T01:37:00.778Z,58.40
2022-12-12T01:37:32.935Z,53.10
2022-12-12T01:38:05.115Z,65.10
2022-12-12T01:38:37.327Z,73.10
2022-12-12T01:39:09.632Z,71.90
2022-12-12T01:39:41.828Z,63.80
2022-12-12T01:40:14.021Z,72.50
2022-12-12T01:40:46.205Z,81.30
2022-12-12T01:41:18.472Z,66.60
2022-12-12T01:41:50.665Z,59.00
2022-12-12T01:42:22.906Z,61.50
2022-12-12T01:42:55.125Z,63.70
2022-12-12T01:43:27.290Z,63.00
2022-12-12T01:43:59.524Z,64.60
2022-12-12T01:44:31.722Z,67.00
2022-12-12T01:45:03.948Z,69.00
2022-12-12T01:45:36.140Z,75.10
2022-12-12T01:46:08.379Z,74.40
2022-12-12T01:46:40.568Z,68.90
2022-12-12T01:47:12.677Z,59.10
2022-12-12T01:47:45.034Z,63.10
2022-12-12T01:48:17.380Z,63.00
2022-12-12T01:48:49.594Z,62.80
2022-12-12T01:49:21.833Z,64.10
2022-12-12T01:49:54.015Z,67.40
2022-12-12T01:50:26.174Z,71.00
2022-12-12T01:50:58.341Z,70.50
2022-12-12T01:51:30.599Z,66.80
2022-12-12T01:52:02.770Z,60.50
2022-12-12T01:52:34.947Z,59.20
2022-12-12T01:53:07.160Z,62.80
2022-12-12T01:53:39.440Z,74.50
2022-12-12T01:54:11.599Z,72.70
2022-12-12T01:54:43.782Z,64.00
2022-12-12T01:55:15.961Z,65.40
2022-12-12T01:55:48.171Z,65.00
2022-12-12T01:56:20.519Z,66.40
2022-12-12T01:56:52.689Z,64.80
2022-12-12T01:57:24.866Z,64.80
2022-12-12T01:57:57.034Z,68.40
2022-12-12T01:58:29.187Z,58.80
2022-12-12T01:59:01.346Z,55.50
2022-12-12T01:59:33.543Z,61.70
2022-12-12T02:00:05.736Z,74.00
2022-12-12T02:00:38.103Z,62.70
2022-12-12T02:01:10.240Z,62.40
2022-12-12T02:01:42.531Z,64.30
2022-12-12T02:02:14.722Z,69.60
2022-12-12T02:02:46.909Z,66.70
2022-12-12T02:03:19.082Z,67.20
2022-12-12T02:03:51.362Z,63.50
2022-12-12T02:04:23.540Z,69.10
2022-12-12T02:04:55.763Z,67.90
2022-12-12T02:05:28.042Z,71.80
2022-12-12T02:06:00.272Z,70.00
2022-12-12T02:06:32.475Z,72.10
2022-12-12T02:07:04.730Z,58.60
2022-12-12T02:07:36.986Z,60.80
2022-12-12T02:08:09.405Z,68.00
2022-12-12T02:08:41.617Z,74.00
2022-12-12T02:09:13.882Z,74.00
2022-12-12T02:09:46.176Z,78.10
2022-12-12T02:10:18.466Z,79.60
2022-12-12T02:10:50.654Z,77.00
2022-12-12T02:11:22.875Z,74.10
2022-12-12T02:11:55.070Z,68.70
2022-12-12T02:12:27.346Z,64.60
2022-12-12T02:12:59.537Z,74.40
2022-12-12T02:13:31.811Z,77.10
2022-12-12T02:14:04.035Z,72.20
2022-12-12T02:14:36.215Z,72.50
2022-12-12T02:15:08.385Z,82.20
2022-12-12T02:15:40.546Z,77.90
2022-12-12T02:16:12.839Z,71.60
2022-12-12T02:16:44.964Z,79.20
2022-12-12T02:17:17.147Z,81.30
2022-12-12T02:17:49.399Z,69.90
2022-12-12T02:18:21.535Z,72.30
2022-12-12T02:18:53.753Z,73.20
2022-12-12T02:19:25.929Z,73.60
2022-12-12T02:19:58.103Z,65.40
2022-12-12T02:20:30.287Z,61.80
2022-12-12T02:21:02.448Z,66.90
2022-12-12T02:21:34.684Z,73.10
2022-12-12T02:22:06.904Z,80.40
2022-12-12T02:22:39.133Z,83.50
2022-12-12T02:23:11.321Z,77.10
2022-12-12T02:23:43.503Z,68.50
2022-12-12T02:24:15.690Z,65.50
2022-12-12T02:24:47.964Z,73.10
2022-12-12T02:25:20.115Z,69.10
2022-12-12T02:25:52.288Z,66.80
2022-12-12T02:26:24.520Z,71.30
2022-12-12T02:26:56.724Z,68.40
2022-12-12T02:27:28.864Z,74.40
2022-12-12T02:28:01.041Z,82.80
2022-12-12T02:28:33.215Z,84.60
2022-12-12T02:29:05.374Z,72.20
2022-12-12T02:29:37.613Z,74.20
2022-12-12T02:30:09.824Z,73.70
2022-12-12T02:30:42.114Z,66.90
2022-12-12T02:31:14.362Z,60.50
2022-12-12T02:31:46.534Z,68.10
2022-12-12T02:32:18.673Z,78.90
2022-12-12T02:32:50.857Z,77.20
2022-12-12T02:33:23.008Z,63.20
2022-12-12T02:33:55.172Z,64.20
2022-12-12T02:34:27.318Z,72.20
2022-12-12T02:34:59.584Z,74.70
2022-12-12T02:35:31.756Z,79.60
2022-12-12T02:36:04.003Z,75.90
2022-12-12T02:36:36.181Z,75.20
2022-12-12T02:37:08.410Z,64.50
2022-12-12T02:37:40.586Z,73.20
2022-12-12T02:38:12.761Z,68.00
2022-12-12T02:38:44.968Z,62.20
2022-12-12T02:39:17.139Z,72.40
2022-12-12T02:39:49.370Z,63.60
2022-12-12T02:40:21.529Z,68.60
2022-12-12T02:40:53.722Z,71.00
2022-12-12T02:41:25.907Z,68.10
2022-12-12T02:41:58.104Z,72.60
2022-12-12T02:42:30.280Z,67.80
2022-12-12T02:43:02.457Z,72.20
2022-12-12T02:43:34.666Z,81.40
2022-12-12T02:44:06.897Z,75.80
2022-12-12T02:44:39.073Z,74.20
2022-12-12T02:45:11.689Z,72.10
2022-12-12T02:45:43.497Z,68.60
2022-12-12T02:46:15.689Z,76.70
2022-12-12T02:46:47.977Z,68.30
2022-12-12T02:47:20.092Z,67.00
2022-12-12T02:47:52.275Z,73.60
2022-12-12T02:48:24.431Z,76.20
2022-12-12T02:48:56.590Z,68.10
2022-12-12T02:49:28.830Z,67.70
2022-12-12T02:50:00.996Z,70.20
2022-12-12T02:50:33.203Z,75.30
2022-12-12T02:51:05.486Z,76.30
2022-12-12T02:51:37.658Z,68.60
2022-12-12T02:52:09.901Z,67.20
2022-12-12T02:52:42.094Z,68.70
2022-12-12T02:53:14.262Z,73.30
2022-12-12T02:53:46.432Z,78.90
2022-12-12T02:54:18.666Z,83.60
2022-12-12T02:54:50.836Z,73.90
2022-12-12T02:55:23.021Z,67.30
2022-12-12T02:55:55.202Z,63.40
2022-12-12T02:56:27.351Z,73.70
2022-12-12T02:56:59.690Z,75.20
2022-12-12T02:57:31.781Z,63.50
2022-12-12T02:58:04.075Z,59.60
2022-12-12T02:58:36.273Z,65.80
2022-12-12T02:59:08.493Z,71.90
2022-12-12T02:59:40.626Z,73.90
2022-12-12T03:00:12.780Z,77.80
2022-12-12T03:00:44.959Z,70.50
2022-12-12T03:01:17.143Z,68.80
2022-12-12T03:01:49.351Z,72.30
2022-12-12T03:02:21.552Z,68.90
2022-12-12T03:02:53.706Z,66.60
2022-12-12T03:03:25.934Z,71.20
2022-12-12T03:03:58.140Z,74.50
2022-12-12T03:04:30.304Z,69.40
2022-12-12T03:05:02.475Z,71.80
2022-12-12T03:05:34.695Z,70.60
2022-12-12T03:06:06.854Z,66.00
2022-12-12T03:06:40.962Z,77.00
2022-12-12T03:07:11.282Z,76.00
2022-12-12T03:07:43.470Z,68.40
2022-12-12T03:08:15.641Z,70.50
2022-12-12T03:08:47.787Z,73.60
2022-12-12T03:09:19.958Z,67.20
2022-12-12T03:09:52.687Z,75.40
2022-12-12T03:10:24.859Z,76.60
2022-12-12T03:10:57.097Z,73.50
2022-12-12T03:11:29.294Z,71.70
2022-12-12T03:12:01.522Z,65.90
2022-12-12T03:12:33.694Z,67.50
2022-12-12T03:13:05.858Z,61.70
2022-12-12T03:13:38.064Z,58.00
2022-12-12T03:14:10.283Z,68.50
2022-12-12T03:14:42.472Z,69.90
2022-12-12T03:15:14.982Z,72.40
2022-12-12T03:15:46.883Z,73.50
2022-12-12T03:16:19.148Z,74.40
2022-12-12T03:16:51.199Z,74.20
2022-12-12T03:17:23.372Z,77.00
2022-12-12T03:17:55.615Z,71.10
2022-12-12T03:18:27.808Z,71.10
2022-12-12T03:19:00.079Z,80.30
2022-12-12T03:19:32.192Z,71.40
2022-12-12T03:20:04.357Z,67.50
2022-12-12T03:20:36.524Z,74.70
2022-12-12T03:21:08.714Z,68.80
2022-12-12T03:21:40.888Z,70.80
2022-12-12T03:22:13.081Z,79.80
2022-12-12T03:22:45.261Z,76.10
2022-12-12T03:23:17.458Z,65.20
2022-12-12T03:23:49.639Z,68.00
2022-12-12T03:24:21.861Z,65.80
2022-12-12T03:24:54.060Z,72.40
2022-12-12T03:25:26.228Z,74.50
2022-12-12T03:25:58.400Z,69.80
2022-12-12T03:26:30.535Z,71.70
2022-12-12T03:27:02.680Z,71.70
2022-12-12T03:27:34.828Z,84.60
2022-12-12T03:28:07.004Z,73.10
2022-12-12T03:28:39.264Z,60.10
2022-12-12T03:29:11.428Z,74.70
2022-12-12T03:29:43.690Z,70.00
2022-12-12T03:30:15.871Z,71.30
2022-12-12T03:30:48.055Z,76.00
2022-12-12T03:31:20.293Z,70.90
2022-12-12T03:31:52.451Z,74.80
2022-12-12T03:32:24.632Z,71.40
2022-12-12T03:32:56.858Z,69.90
2022-12-12T03:33:29.015Z,62.90
2022-12-12T03:34:01.173Z,62.20
2022-12-12T03:34:33.461Z,64.30
2022-12-12T03:35:05.622Z,61.00
2022-12-12T03:35:37.789Z,64.70
2022-12-12T03:36:09.950Z,66.10
2022-12-12T03:36:42.153Z,61.10
2022-12-12T03:37:14.340Z,72.50
2022-12-12T03:37:46.653Z,67.70
2022-12-12T03:38:18.825Z,68.60
2022-12-12T03:38:50.985Z,74.80
2022-12-12T03:39:23.166Z,70.20
2022-12-12T03:39:55.325Z,71.20
2022-12-12T03:40:27.513Z,74.10
2022-12-12T03:40:59.666Z,69.70
2022-12-12T03:41:32.023Z,66.30
2022-12-12T03:42:04.191Z,65.80
2022-12-12T03:42:36.383Z,69.40
2022-12-12T03:43:09.224Z,81.30
2022-12-12T03:43:41.379Z,76.60
2022-12-12T03:44:13.558Z,64.90
2022-12-12T03:44:45.725Z,66.90
2022-12-12T03:45:17.908Z,69.40
2022-12-12T03:45:50.141Z,67.00
2022-12-12T03:46:22.347Z,65.20
2022-12-12T03:46:54.499Z,68.10
2022-12-12T03:47:26.687Z,69.20
2022-12-12T03:47:58.934Z,64.80
2022-12-12T03:48:31.181Z,65.20
2022-12-12T03:49:03.340Z,69.30
2022-12-12T03:49:35.591Z,65.00
2022-12-12T03:50:07.783Z,67.50
2022-12-12T03:50:39.983Z,63.60
2022-12-12T03:51:12.152Z,59.40
2022-12-12T03:51:44.347Z,62.60
2022-12-12T03:52:16.506Z,65.00
2022-12-12T03:52:48.651Z,69.20
2022-12-12T03:53:20.827Z,68.30
2022-12-12T03:53:53.054Z,64.00
2022-12-12T03:54:25.270Z,72.20
2022-12-12T03:54:57.419Z,67.10
2022-12-12T03:55:29.658Z,61.20
2022-12-12T03:56:01.855Z,63.00
2022-12-12T03:56:34.150Z,63.50
2022-12-12T03:57:06.328Z,68.70
2022-12-12T03:57:38.566Z,69.30
2022-12-12T03:58:10.740Z,64.70
2022-12-12T03:58:42.973Z,67.10
2022-12-12T03:59:15.146Z,66.30
2022-12-12T03:59:47.291Z,72.60
2022-12-12T04:00:19.577Z,73.30
2022-12-12T04:00:51.817Z,66.80
2022-12-12T04:01:24.070Z,68.10
2022-12-12T04:01:56.322Z,68.80
2022-12-12T04:02:28.429Z,73.50
2022-12-12T04:03:00.701Z,70.90
2022-12-12T04:03:32.947Z,67.90
2022-12-12T04:04:05.217Z,74.40
2022-12-12T04:04:37.379Z,73.70
2022-12-12T04:05:09.570Z,72.30
2022-12-12T04:05:41.746Z,68.40
2022-12-12T04:06:13.914Z,68.60
2022-12-12T04:06:46.097Z,71.80
2022-12-12T04:07:18.254Z,81.40
2022-12-12T04:07:50.486Z,82.90
2022-12-12T04:08:22.706Z,74.40
2022-12-12T04:08:54.889Z,66.30
2022-12-12T04:09:27.044Z,69.80
2022-12-12T04:09:59.270Z,71.30
2022-12-12T04:10:31.572Z,68.80
2022-12-12T04:11:03.772Z,76.70
2022-12-12T04:11:35.965Z,70.40
2022-12-12T04:12:08.144Z,62.20
2022-12-12T04:12:40.385Z,66.50
2022-12-12T04:13:12.559Z,70.00
2022-12-12T04:13:44.774Z,67.80
2022-12-12T04:14:17.033Z,73.60
2022-12-12T04:14:49.201Z,70.30
2022-12-12T04:15:21.368Z,72.10
2022-12-12T04:15:53.527Z,75.20
2022-12-12T04:16:25.754Z,71.80
2022-12-12T04:16:57.907Z,67.70
2022-12-12T04:17:30.010Z,63.10
2022-12-12T04:18:02.220Z,67.90
2022-12-12T04:18:34.472Z,70.80
2022-12-12T04:19:06.643Z,80.80
2022-12-12T04:19:38.872Z,86.50
2022-12-12T04:20:10.993Z,71.10
2022-12-12T04:20:43.218Z,59.90
2022-12-12T04:21:15.594Z,68.30
2022-12-12T04:21:47.757Z,70.30
2022-12-12T04:22:23.312Z,79.40
2022-12-12T04:22:52.085Z,81.50
2022-12-12T04:23:24.294Z,66.80
2022-12-12T04:23:56.475Z,64.60
2022-12-12T04:24:28.615Z,70.50
2022-12-12T04:25:00.816Z,72.30
2022-12-12T04:25:33.023Z,79.30
2022-12-12T04:26:05.242Z,83.80
2022-12-12T04:26:37.453Z,83.70
2022-12-12T04:27:09.667Z,80.00
2022-12-12T04:27:41.950Z,77.30
2022-12-12T04:28:14.118Z,76.80
2022-12-12T04:28:46.290Z,69.80
2022-12-12T04:29:18.433Z,69.80
2022-12-12T04:29:50.662Z,76.10
2022-12-12T04:30:22.862Z,74.00
2022-12-12T04:30:55.030Z,78.60
2022-12-12T04:31:27.217Z,79.40
2022-12-12T04:31:59.465Z,75.10
2022-12-12T04:32:31.594Z,71.50
2022-12-12T04:33:03.763Z,73.00
2022-12-12T04:33:35.949Z,73.60
2022-12-12T04:34:08.102Z,67.10
2022-12-12T04:34:40.344Z,70.30
2022-12-12T04:35:12.833Z,76.30
2022-12-12T04:35:44.671Z,76.30
2022-12-12T04:36:16.921Z,68.80
2022-12-12T04:36:49.217Z,69.70
2022-12-12T04:37:21.416Z,66.90
2022-12-12T04:37:53.678Z,78.00
2022-12-12T04:38:25.837Z,79.80
2022-12-12T04:38:58.118Z,74.10
2022-12-12T04:39:30.307Z,72.60
2022-12-12T04:40:02.500Z,80.50
2022-12-12T04:40:34.658Z,74.40
2022-12-12T04:41:06.851Z,78.40
2022-12-12T04:41:39.033Z,81.60
2022-12-12T04:42:11.212Z,77.00
2022-12-12T04:42:43.451Z,73.90
2022-12-12T04:43:15.808Z,75.30
2022-12-12T04:43:48.142Z,81.90
2022-12-12T04:44:20.289Z,86.70
2022-12-12T04:44:52.454Z,72.50
2022-12-12T04:45:24.695Z,62.90
2022-12-12T04:45:56.892Z,76.10
2022-12-12T04:46:29.060Z,84.90
2022-12-12T04:47:01.221Z,77.50
2022-12-12T04:47:33.403Z,76.50
2022-12-12T04:48:05.594Z,76.00
2022-12-12T04:48:38.984Z,85.40
2022-12-12T04:49:09.938Z,85.90
2022-12-12T04:49:42.215Z,76.60
2022-12-12T04:50:14.376Z,71.70
2022-12-12T04:50:46.622Z,72.70
2022-12-12T04:51:18.861Z,76.90
2022-12-12T04:51:51.042Z,71.80
2022-12-12T04:52:23.209Z,69.30
2022-12-12T04:52:55.394Z,74.10
2022-12-12T04:53:27.542Z,78.10
2022-12-12T04:53:59.724Z,74.10
2022-12-12T04:54:31.973Z,71.90
2022-12-12T04:55:04.126Z,74.80
2022-12-12T04:55:36.295Z,72.20
2022-12-12T04:56:08.467Z,74.50
2022-12-12T04:56:40.614Z,76.40
2022-12-12T04:57:12.776Z,73.60
2022-12-12T04:57:44.919Z,79.10
2022-12-12T04:58:17.213Z,79.20
2022-12-12T04:58:49.412Z,74.40
2022-12-12T04:59:21.581Z,73.40
2022-12-12T04:59:53.793Z,75.00
2022-12-12T05:00:26.083Z,77.70
2022-12-12T05:00:58.359Z,83.40
2022-12-12T05:01:30.496Z,86.80
2022-12-12T05:02:02.702Z,78.80
2022-12-12T05:02:34.955Z,81.20
2022-12-12T05:03:07.072Z,80.40
2022-12-12T05:03:39.318Z,70.70
2022-12-12T05:04:11.560Z,74.00
2022-12-12T05:04:43.779Z,91.00
2022-12-12T05:05:16.022Z,88.80
2022-12-12T05:05:48.158Z,81.10
2022-12-12T05:06:20.375Z,76.30
2022-12-12T05:06:52.622Z,73.40
2022-12-12T05:07:24.791Z,78.60
2022-12-12T05:07:57.065Z,73.30
2022-12-12T05:08:29.262Z,69.00
2022-12-12T05:09:01.380Z,73.00
2022-12-12T05:09:33.546Z,76.10
2022-12-12T05:10:05.744Z,77.10
2022-12-12T05:10:37.921Z,75.20
2022-12-12T05:11:10.138Z,66.90
2022-12-12T05:11:42.314Z,73.00
2022-12-12T05:12:14.491Z,84.20
2022-12-12T05:12:46.664Z,83.00
2022-12-12T05:13:18.831Z,77.40
2022-12-12T05:13:50.987Z,82.50
2022-12-12T05:14:23.176Z,75.90
2022-12-12T05:14:55.339Z,79.80
2022-12-12T05:15:27.508Z,92.00
2022-12-12T05:15:59.687Z,89.90
2022-12-12T05:16:31.915Z,85.60
2022-12-12T05:17:04.152Z,79.70
2022-12-12T05:17:36.302Z,80.30
2022-12-12T05:18:08.485Z,89.40
2022-12-12T05:18:40.660Z,80.20
2022-12-12T05:19:12.834Z,70.60
2022-12-12T05:19:44.998Z,81.80
2022-12-12T05:20:17.305Z,97.70
2022-12-12T05:20:49.461Z,95.00
2022-12-12T05:21:21.675Z,90.90
2022-12-12T05:21:53.867Z,87.30
2022-12-12T05:22:26.073Z,85.50
2022-12-12T05:22:58.271Z,74.80
2022-12-12T05:23:34.482Z,85.10
2022-12-12T05:24:02.621Z,87.40
2022-12-12T05:24:34.787Z,73.90
2022-12-12T05:25:06.977Z,82.30
2022-12-12T05:25:39.221Z,78.60
2022-12-12T05:26:11.399Z,77.10
2022-12-12T05:26:43.569Z,85.80
2022-12-12T05:27:15.737Z,82.70
2022-12-12T05:27:47.909Z,75.40
2022-12-12T05:28:20.114Z,84.90
2022-12-12T05:28:52.291Z,82.70
2022-12-12T05:29:24.454Z,79.80
2022-12-12T05:29:56.633Z,80.20
2022-12-12T05:30:28.871Z,93.70
2022-12-12T05:31:01.302Z,95.70
2022-12-12T05:31:33.281Z,77.00
2022-12-12T05:32:05.482Z,87.20
2022-12-12T05:32:37.687Z,86.20
2022-12-12T05:33:09.842Z,79.30
2022-12-12T05:33:42.030Z,84.10
2022-12-12T05:34:14.255Z,82.30
2022-12-12T05:34:46.446Z,86.30
2022-12-12T05:35:18.753Z,91.20
2022-12-12T05:35:51.023Z,89.20
2022-12-12T05:36:23.218Z,89.30
2022-12-12T05:36:55.389Z,87.30
2022-12-12T05:37:27.570Z,79.10
2022-12-12T05:37:59.756Z,67.20
2022-12-12T05:38:32.201Z,69.20
2022-12-12T05:39:04.386Z,78.90
2022-12-12T05:39:36.568Z,81.80
2022-12-12T05:40:08.802Z,83.40
2022-12-12T05:40:41.036Z,76.80
2022-12-12T05:41:13.217Z,72.30
2022-12-12T05:41:45.500Z,68.60
2022-12-12T05:42:17.799Z,73.10
2022-12-12T05:42:49.983Z,79.60
2022-12-12T05:43:22.258Z,82.10
2022-12-12T05:43:54.415Z,91.10
2022-12-12T05:44:26.661Z,90.20
2022-12-12T05:44:58.845Z,86.70
2022-12-12T05:45:31.003Z,85.00
2022-12-12T05:46:03.240Z,73.10
2022-12-12T05:46:35.357Z,72.20
2022-12-12T05:47:07.576Z,80.70
2022-12-12T05:47:39.791Z,81.60
2022-12-12T05:48:12.001Z,73.20
2022-12-12T05:48:44.261Z,76.70
2022-12-12T05:49:16.470Z,80.60
2022-12-12T05:49:48.659Z,88.50
2022-12-12T05:50:20.850Z,77.90
2022-12-12T05:50:53.092Z,73.10
2022-12-12T05:51:25.254Z,71.40
2022-12-12T05:51:57.456Z,87.10
2022-12-12T05:52:29.592Z,92.70
2022-12-12T05:53:01.761Z,79.60
2022-12-12T05:53:42.002Z,85.50
2022-12-12T05:54:06.236Z,87.50
2022-12-12T05:54:38.423Z,84.80
2022-12-12T05:55:10.794Z,92.90
2022-12-12T05:55:42.806Z,88.10
2022-12-12T05:56:15.022Z,79.90
2022-12-12T05:56:47.221Z,88.40
2022-12-12T05:57:19.593Z,83.50
2022-12-12T05:57:51.757Z,81.10
2022-12-12T05:58:23.909Z,82.10
2022-12-12T05:58:56.195Z,82.70
2022-12-12T05:59:28.406Z,76.90
2022-12-12T06:00:00.554Z,78.50
2022-12-12T06:00:32.820Z,79.30
2022-12-12T06:01:05.051Z,89.70
2022-12-12T06:01:37.276Z,85.80
2022-12-12T06:02:09.514Z,81.00
2022-12-12T06:02:41.759Z,83.30
2022-12-12T06:03:13.816Z,88.10
2022-12-12T06:03:46.134Z,86.10
2022-12-12T06:04:18.468Z,80.50
2022-12-12T06:04:50.716Z,77.60
2022-12-12T06:05:22.997Z,80.60
2022-12-12T06:05:55.185Z,82.40
2022-12-12T06:06:27.392Z,80.10
2022-12-12T06:06:59.599Z,73.20
2022-12-12T06:07:31.823Z,74.20
2022-12-12T06:08:04.052Z,83.50
2022-12-12T06:08:36.199Z,86.80
2022-12-12T06:09:08.328Z,84.00
2022-12-12T06:09:40.658Z,74.60
2022-12-12T06:10:12.888Z,72.90
2022-12-12T06:10:45.035Z,67.60
2022-12-12T06:11:17.197Z,74.20
2022-12-12T06:11:49.353Z,87.00
2022-12-12T06:12:21.511Z,81.70
2022-12-12T06:12:53.730Z,81.50
2022-12-12T06:13:25.960Z,83.40
2022-12-12T06:13:58.187Z,86.60
2022-12-12T06:14:30.399Z,83.00
2022-12-12T06:15:02.627Z,81.90
2022-12-12T06:15:34.851Z,79.50
2022-12-12T06:16:07.109Z,74.20
2022-12-12T06:16:39.276Z,79.40
2022-12-12T06:17:11.514Z,74.30
2022-12-12T06:17:43.667Z,73.80
2022-12-12T06:18:15.832Z,76.80
2022-12-12T06:18:48.081Z,89.90
2022-12-12T06:19:20.532Z,84.80
2022-12-12T06:19:52.746Z,71.90
2022-12-12T06:20:24.997Z,74.00
2022-12-12T06:20:57.157Z,78.70
2022-12-12T06:21:29.302Z,73.90
2022-12-12T06:22:01.498Z,73.40
2022-12-12T06:22:33.757Z,86.00
2022-12-12T06:23:05.919Z,77.90
2022-12-12T06:23:38.059Z,77.30
2022-12-12T06:24:10.193Z,84.00
2022-12-12T06:24:42.327Z,79.00
2022-12-12T06:25:14.676Z,76.10
2022-12-12T06:25:46.688Z,73.40
2022-12-12T06:26:18.931Z,67.40
2022-12-12T06:26:51.174Z,70.80
2022-12-12T06:27:23.373Z,76.30
2022-12-12T06:27:55.697Z,79.60
2022-12-12T06:28:27.886Z,85.00
2022-12-12T06:29:00.066Z,87.20
2022-12-12T06:29:32.283Z,85.90
2022-12-12T06:30:04.564Z,79.40
2022-12-12T06:30:37.708Z,84.40
2022-12-12T06:31:11.748Z,85.00
2022-12-12T06:31:42.135Z,78.30
2022-12-12T06:32:14.458Z,76.00
2022-12-12T06:32:46.641Z,82.30
2022-12-12T06:33:20.554Z,84.50
2022-12-12T06:33:52.906Z,73.60
2022-12-12T06:34:25.195Z,68.10
2022-12-12T06:34:57.490Z,73.30
2022-12-12T06:35:29.653Z,79.60
2022-12-12T06:36:01.872Z,74.20
2022-12-12T06:36:34.064Z,70.00
2022-12-12T06:37:06.218Z,77.90
2022-12-12T06:37:38.471Z,79.80
2022-12-12T06:38:10.630Z,82.60
2022-12-12T06:38:42.946Z,82.20
2022-12-12T06:39:15.275Z,72.40
2022-12-12T06:39:47.443Z,66.00
2022-12-12T06:40:19.631Z,71.10
2022-12-12T06:40:51.845Z,72.90
2022-12-12T06:41:24.121Z,74.60
2022-12-12T06:41:56.262Z,71.80
2022-12-12T06:42:28.401Z,69.60
2022-12-12T06:43:00.570Z,80.00
2022-12-12T06:43:32.805Z,81.60
2022-12-12T06:44:05.163Z,61.80
2022-12-12T06:44:37.366Z,71.80
2022-12-12T06:45:09.581Z,77.20
2022-12-12T06:45:41.783Z,72.90
2022-12-12T06:46:14.015Z,69.10
2022-12-12T06:46:46.230Z,66.20
2022-12-12T06:47:18.443Z,73.00
2022-12-12T06:47:50.656Z,79.80
2022-12-12T06:48:22.841Z,85.00
2022-12-12T06:48:55.097Z,81.10
2022-12-12T06:49:27.400Z,80.80
2022-12-12T06:49:59.565Z,72.30
2022-12-12T06:50:31.855Z,72.40
2022-12-12T06:51:04.055Z,71.90
2022-12-12T06:51:36.317Z,67.70
2022-12-12T06:52:08.497Z,72.60
2022-12-12T06:52:40.694Z,76.00
2022-12-12T06:53:12.940Z,72.50
2022-12-12T06:53:45.091Z,76.40
2022-12-12T06:54:17.311Z,70.90
2022-12-12T06:54:49.552Z,66.40